Aspen, Colorado
Current Conditions -  °F | °C
As of 5:53 PM on Friday 19 Dec 2014 (Local Time) from KASE Reporting Station
Clear Clear  
Wind Chill: -6°   Ceiling: Unl
Heat Index: -6°   Visibility: 10mi
Dew Point: -10°   Wind: 3mph
Humidity: 72%   Direction: NA
Pressure: 30.17"   Gusts: NA
Location:  39.19°N, 106.81°W
Report Text: KASE 200053Z VRB03KT 10SM CLR M06/M10 A3017 RMK AO2 SLP229 T10561100
Loading
Personal Weather Stations






























Interactive Weather Map New forecast layout! Learn more

10-Day Weather Forecast

Advertisements
Track Severe Weather on mobile